Time;durP1;ratioP1;P1;durP2;ratioP2;P2;SDS_P1;SDS_P2;PMS_P1;PMS_P2;Temp;Humidity;BMP_temperature;BMP_pressure;BME280_temperature;BME280_humidity;BME280_pressure;Samples;Min_cycle;Max_cycle;Signal;HPM_P1;HPM_P2
2021/08/01 00:02:50;;;;;;;5.95;2.13;;;15.70;99.90;;;;;;20846279;28;20117;-82
2021/08/01 00:12:51;;;;;;;5.72;2.75;;;15.70;99.90;;;;;;20746935;28;20038;-81
2021/08/01 00:22:52;;;;;;;8.35;3.55;;;15.60;99.90;;;;;;20710227;28;20045;-82
2021/08/01 00:32:53;;;;;;;8.82;3.10;;;15.60;99.90;;;;;;20707968;28;20085;-83
2021/08/01 00:42:55;;;;;;;6.93;2.65;;;15.60;99.90;;;;;;20696776;28;20105;-83
2021/08/01 00:52:57;;;;;;;10.20;3.67;;;15.60;99.90;;;;;;20676119;28;20128;-83
2021/08/01 01:03:07;;;;;;;7.03;3.17;;;15.50;99.90;;;;;;20696670;28;20033;-82
2021/08/01 01:13:15;;;;;;;6.78;2.35;;;15.40;99.90;;;;;;20716000;28;20512;-82
2021/08/01 01:23:40;;;;;;;8.10;2.80;;;15.40;99.90;;;;;;20702308;28;20417;-83
2021/08/01 01:33:59;;;;;;;6.00;2.25;;;15.50;99.90;;;;;;20766196;28;20044;-82
2021/08/01 01:44:01;;;;;;;7.25;3.10;;;15.50;99.90;;;;;;20788965;28;20072;-82
2021/08/01 01:54:03;;;;;;;8.75;2.75;;;15.60;99.90;;;;;;20701433;28;20046;-83
2021/08/01 02:04:05;;;;;;;9.93;3.47;;;15.40;99.90;;;;;;20665034;28;20038;-83
2021/08/01 02:14:12;;;;;;;8.30;3.33;;;15.40;99.90;;;;;;20678265;28;20463;-83
2021/08/01 02:24:14;;;;;;;6.78;2.88;;;15.50;99.90;;;;;;20689583;28;20494;-83
2021/08/01 02:34:16;;;;;;;7.13;3.15;;;15.60;99.90;;;;;;21552684;23;20055;-85
2021/08/01 02:44:24;;;;;;;7.13;2.95;;;15.70;99.90;;;;;;20526576;28;21453;-84
2021/08/01 02:54:27;;;;;;;6.13;2.45;;;15.70;99.90;;;;;;20538951;28;20050;-86
2021/08/01 03:04:28;;;;;;;7.80;3.97;;;15.80;99.90;;;;;;20548071;28;20060;-85
2021/08/01 03:14:31;;;;;;;7.43;2.38;;;15.70;99.90;;;;;;20502643;28;20596;-85
2021/08/01 03:24:32;;;;;;;7.93;2.42;;;15.70;99.90;;;;;;20554008;28;20108;-85
2021/08/01 03:34:34;;;;;;;7.85;3.03;;;15.60;99.90;;;;;;20562893;28;20116;-85
2021/08/01 03:44:35;;;;;;;5.70;2.60;;;15.70;99.90;;;;;;20608669;28;20103;-86
2021/08/01 03:54:36;;;;;;;5.65;2.22;;;15.90;99.90;;;;;;20606001;28;20873;-85
2021/08/01 04:04:38;;;;;;;8.07;2.70;;;15.80;99.90;;;;;;20581571;28;20075;-85
2021/08/01 04:14:39;;;;;;;7.43;2.70;;;15.70;99.90;;;;;;20590329;28;20421;-85
2021/08/01 04:24:41;;;;;;;6.88;2.45;;;15.60;99.90;;;;;;20569725;28;20474;-85
2021/08/01 04:34:42;;;;;;;8.32;3.33;;;15.50;99.90;;;;;;20593655;28;20050;-84
2021/08/01 04:44:43;;;;;;;7.75;2.90;;;15.60;99.90;;;;;;20485505;28;20113;-85
2021/08/01 04:54:45;;;;;;;8.55;3.28;;;15.60;99.90;;;;;;20518444;28;20143;-85
2021/08/01 05:04:46;;;;;;;7.93;2.75;;;15.60;99.90;;;;;;20569792;28;20401;-85
2021/08/01 05:14:48;;;;;;;6.93;2.83;;;15.70;99.90;;;;;;20473016;28;20413;-85
2021/08/01 05:24:49;;;;;;;9.35;3.67;;;15.70;99.90;;;;;;20527702;28;20509;-85
2021/08/01 05:34:50;;;;;;;10.90;4.03;;;15.90;99.90;;;;;;20564867;28;20461;-85
2021/08/01 05:44:51;;;;;;;14.93;4.53;;;15.90;99.90;;;;;;20603831;28;20447;-85
2021/08/01 05:54:53;;;;;;;21.02;6.10;;;15.90;99.90;;;;;;20538828;28;20486;-85
2021/08/01 06:04:55;;;;;;;13.85;4.70;;;16.10;99.90;;;;;;20602089;28;20033;-85
2021/08/01 06:14:56;;;;;;;13.73;5.45;;;16.20;99.90;;;;;;20466824;28;20461;-85
2021/08/01 06:24:57;;;;;;;16.77;6.38;;;16.30;99.90;;;;;;20487937;28;20573;-86
2021/08/01 06:34:58;;;;;;;13.38;5.32;;;16.40;99.90;;;;;;20518802;28;20517;-85
2021/08/01 06:44:59;;;;;;;17.15;6.00;;;16.40;99.90;;;;;;20599135;28;20053;-86
2021/08/01 06:55:02;;;;;;;17.92;6.00;;;16.60;99.90;;;;;;20579679;28;20523;-84
2021/08/01 07:05:04;;;;;;;17.83;4.95;;;16.80;99.90;;;;;;20691316;28;20493;-89
2021/08/01 07:15:05;;;;;;;13.35;5.38;;;17.00;99.90;;;;;;20609256;28;20046;-87
2021/08/01 07:25:08;;;;;;;17.80;5.70;;;17.00;99.90;;;;;;20602660;28;20046;-88
2021/08/01 07:35:10;;;;;;;20.83;6.03;;;17.40;99.90;;;;;;20568322;28;20053;-87
2021/08/01 07:45:23;;;;;;;22.08;5.65;;;17.60;99.90;;;;;;20649975;28;20049;-86
2021/08/01 07:55:24;;;;;;;14.68;5.10;;;17.70;99.90;;;;;;20518582;28;20090;-87
2021/08/01 08:05:26;;;;;;;20.05;4.60;;;17.90;99.90;;;;;;20556228;28;20077;-86
2021/08/01 08:15:30;;;;;;;7.43;3.03;;;18.10;99.90;;;;;;20513381;28;20050;-85
2021/08/01 08:25:34;;;;;;;9.57;2.60;;;18.80;99.90;;;;;;20627034;28;20457;-85
2021/08/01 08:35:36;;;;;;;4.55;2.08;;;18.90;99.90;;;;;;20611212;28;20046;-84
2021/08/01 08:45:43;;;;;;;9.85;2.50;;;18.30;99.90;;;;;;20635461;28;20049;-83
2021/08/01 08:55:47;;;;;;;8.40;3.57;;;17.60;99.90;;;;;;20563910;28;20080;-85
2021/08/01 09:05:53;;;;;;;7.18;2.20;;;17.40;99.90;;;;;;20555283;28;20030;-85
2021/08/01 09:15:55;;;;;;;3.17;1.67;;;17.30;99.90;;;;;;20544625;28;20077;-84
2021/08/01 09:25:59;;;;;;;5.75;1.77;;;17.40;99.90;;;;;;20637618;28;20035;-84
2021/08/01 09:36:19;;;;;;;2.17;0.75;;;17.50;99.90;;;;;;20590101;28;20501;-84
2021/08/01 09:46:20;;;;;;;3.40;0.80;;;17.50;99.90;;;;;;20545180;28;20544;-82
2021/08/01 09:56:22;;;;;;;1.40;0.52;;;17.50;99.90;;;;;;20583218;28;20050;-83
2021/08/01 10:06:24;;;;;;;0.90;0.32;;;17.40;99.90;;;;;;20514085;28;20057;-82
2021/08/01 10:16:25;;;;;;;1.52;0.60;;;17.40;99.90;;;;;;20575004;28;20095;-83
2021/08/01 10:26:41;;;;;;;2.03;0.77;;;17.50;99.90;;;;;;20583262;28;20038;-83
2021/08/01 10:36:51;;;;;;;4.85;1.10;;;17.70;99.90;;;;;;20622091;28;20047;-82
2021/08/01 10:46:52;;;;;;;2.05;0.70;;;18.10;99.90;;;;;;20582526;28;20099;-84
2021/08/01 10:57:16;;;;;;;2.08;0.98;;;18.60;99.90;;;;;;20592196;28;20046;-82
2021/08/01 11:07:27;;;;;;;2.83;1.15;;;18.90;99.90;;;;;;20519477;28;20064;-83
2021/08/01 11:17:43;;;;;;;2.90;1.10;;;18.10;99.90;;;;;;20540526;28;20537;-80
2021/08/01 11:28:09;;;;;;;2.22;1.20;;;17.60;99.90;;;;;;20700181;28;20535;-80
2021/08/01 11:38:10;;;;;;;5.13;1.98;;;17.50;99.90;;;;;;20646974;28;20046;-80
2021/08/01 11:48:17;;;;;;;2.47;1.08;;;18.80;99.90;;;;;;20625987;28;20038;-81
2021/08/01 11:58:19;;;;;;;;;;;19.30;99.90;;;;;;20563614;28;20038;-82
2021/08/01 12:08:33;;;;;;;4.35;1.58;;;19.50;99.90;;;;;;20615055;28;20021;-82
2021/08/01 12:18:34;;;;;;;3.10;1.52;;;19.60;99.90;;;;;;20585664;28;20105;-84
2021/08/01 12:28:39;;;;;;;1.58;0.90;;;19.60;99.90;;;;;;20551146;28;20046;-81
2021/08/01 12:38:40;;;;;;;2.83;1.02;;;18.90;99.90;;;;;;20585150;28;20090;-81
2021/08/01 12:48:42;;;;;;;1.35;0.50;;;19.00;99.90;;;;;;20477156;28;20034;-82
2021/08/01 12:58:44;;;;;;;2.97;1.40;;;18.80;99.90;;;;;;20563926;28;20046;-82
2021/08/01 13:08:49;;;;;;;1.80;0.90;;;18.70;99.90;;;;;;20552483;28;20037;-81
2021/08/01 13:19:08;;;;;;;2.17;1.05;;;18.60;99.90;;;;;;20588558;28;20055;-81
2021/08/01 13:29:18;;;;;;;1.52;0.70;;;18.90;99.90;;;;;;20618415;28;20037;-80
2021/08/01 13:39:28;;;;;;;1.55;0.75;;;19.90;99.90;;;;;;20568954;28;20043;-80
2021/08/01 13:49:30;;;;;;;1.92;0.73;;;19.90;99.90;;;;;;20562129;28;20036;-80
2021/08/01 13:59:34;;;;;;;1.77;0.73;;;19.50;99.90;;;;;;20508093;28;20038;-81
2021/08/01 14:09:36;;;;;;;1.35;0.60;;;19.20;99.90;;;;;;20553008;28;20081;-82
2021/08/01 14:19:38;;;;;;;1.80;0.80;;;19.40;99.90;;;;;;20518210;28;20048;-81
2021/08/01 14:29:41;;;;;;;1.95;0.70;;;19.60;99.90;;;;;;20500400;28;20045;-81
2021/08/01 14:39:44;;;;;;;3.40;0.68;;;19.90;99.90;;;;;;20528535;28;20041;-82
2021/08/01 14:49:53;;;;;;;1.45;0.45;;;19.90;99.90;;;;;;20584307;28;20097;-81
2021/08/01 15:00:09;;;;;;;0.90;0.30;;;19.60;99.90;;;;;;20519510;28;20054;-81
2021/08/01 15:10:25;;;;;;;0.35;0.20;;;19.40;99.90;;;;;;20556030;28;20053;-81
2021/08/01 15:20:28;;;;;;;1.10;0.40;;;19.50;99.90;;;;;;20580496;28;20084;-82
2021/08/01 15:30:34;;;;;;;1.02;0.50;;;19.50;99.90;;;;;;20589234;28;20040;-81
2021/08/01 15:40:35;;;;;;;1.63;0.77;;;19.20;99.90;;;;;;20564352;28;20057;-82
2021/08/01 15:50:37;;;;;;;2.75;1.77;;;19.20;99.90;;;;;;20516940;28;20077;-81
2021/08/01 16:00:42;;;;;;;0.88;0.30;;;19.00;99.90;;;;;;20479224;28;20054;-81
2021/08/01 16:10:45;;;;;;;1.40;0.40;;;18.80;99.90;;;;;;20494288;28;20084;-82
2021/08/01 16:20:49;;;;;;;0.98;0.22;;;18.70;99.90;;;;;;20528522;28;20146;-80
2021/08/01 16:30:52;;;;;;;4.00;0.60;;;18.90;99.90;;;;;;20553636;28;20112;-80
2021/08/01 16:41:20;;;;;;;1.23;0.65;;;18.90;99.90;;;;;;20582573;28;20047;-80
2021/08/01 16:51:33;;;;;;;3.65;0.60;;;18.50;99.90;;;;;;20527201;28;20104;-81
2021/08/01 17:01:35;;;;;;;1.33;0.50;;;18.50;99.90;;;;;;20535224;28;20030;-82
2021/08/01 17:11:56;;;;;;;1.17;0.40;;;18.60;99.90;;;;;;20565709;28;20088;-82
2021/08/01 17:21:58;;;;;;;1.20;0.50;;;18.20;99.90;;;;;;20502437;28;20129;-82
2021/08/01 17:31:59;;;;;;;1.13;0.50;;;18.30;99.90;;;;;;20469450;28;20030;-83
2021/08/01 17:42:11;;;;;;;1.80;0.47;;;18.20;99.90;;;;;;20450105;28;20389;-84
2021/08/01 17:52:13;;;;;;;2.20;0.30;;;18.00;99.90;;;;;;20406480;28;20097;-84
2021/08/01 18:02:18;;;;;;;3.17;0.85;;;18.00;99.90;;;;;;20369844;28;20046;-82
2021/08/01 18:12:26;;;;;;;1.05;0.52;;;18.00;99.90;;;;;;20514857;28;20030;-82
2021/08/01 18:22:27;;;;;;;2.77;0.30;;;17.70;99.90;;;;;;20481521;28;20537;-82
2021/08/01 18:32:29;;;;;;;1.10;0.32;;;17.70;99.90;;;;;;20556322;28;20382;-82
2021/08/01 18:42:32;;;;;;;2.55;0.60;;;17.50;99.90;;;;;;20530871;28;20498;-82
2021/08/01 18:52:37;;;;;;;1.75;0.55;;;17.20;99.90;;;;;;20529754;28;20475;-82
2021/08/01 19:02:40;;;;;;;2.65;0.22;;;16.90;99.90;;;;;;20534401;28;20607;-82
2021/08/01 19:12:42;;;;;;;1.17;0.40;;;16.70;99.90;;;;;;20512689;28;20105;-82
2021/08/01 19:23:11;;;;;;;1.95;0.28;;;16.50;99.90;;;;;;20506776;28;20619;-82
2021/08/01 19:33:14;;;;;;;0.70;0.30;;;16.40;99.90;;;;;;20522268;28;20525;-82
2021/08/01 19:43:17;;;;;;;1.75;0.57;;;16.20;99.90;;;;;;20504586;28;20045;-83
2021/08/01 19:53:19;;;;;;;2.88;0.20;;;16.00;99.90;;;;;;20554634;28;20133;-82
2021/08/01 20:03:20;;;;;;;6.72;0.40;;;15.80;99.90;;;;;;20560054;28;20476;-81
2021/08/01 20:13:21;;;;;;;1.42;0.47;;;15.80;99.90;;;;;;20560321;28;20596;-83
2021/08/01 20:23:24;;;;;;;1.15;0.50;;;15.60;99.90;;;;;;20439917;28;20802;-84
2021/08/01 20:33:25;;;;;;;1.10;0.30;;;15.40;99.90;;;;;;20469690;28;20054;-86
2021/08/01 20:43:27;;;;;;;1.88;0.52;;;15.20;99.90;;;;;;20480339;28;20081;-86
2021/08/01 20:53:29;;;;;;;3.08;0.77;;;15.10;99.90;;;;;;20599137;28;20050;-85
2021/08/01 21:03:34;;;;;;;3.03;0.50;;;14.90;99.90;;;;;;20576166;28;20039;-85
2021/08/01 21:13:35;;;;;;;2.22;0.30;;;14.80;99.90;;;;;;20535723;28;20055;-84
2021/08/01 21:23:36;;;;;;;3.28;0.82;;;14.60;99.90;;;;;;20570835;28;20488;-84
2021/08/01 21:33:37;;;;;;;2.30;0.52;;;14.40;99.90;;;;;;20614490;28;20695;-84
2021/08/01 21:43:38;;;;;;;3.17;0.80;;;14.50;99.90;;;;;;20593402;28;20687;-85
2021/08/01 21:53:41;;;;;;;1.88;0.70;;;14.50;99.90;;;;;;20617581;28;20042;-85
2021/08/01 22:04:05;;;;;;;1.73;0.60;;;14.30;99.90;;;;;;20600839;28;20058;-84
2021/08/01 22:14:08;;;;;;;1.27;0.60;;;14.30;99.90;;;;;;20623931;28;20101;-84
2021/08/01 22:24:10;;;;;;;1.20;0.40;;;14.10;99.90;;;;;;20607361;28;20069;-85
2021/08/01 22:34:15;;;;;;;2.97;0.80;;;14.00;99.90;;;;;;20610598;28;20103;-85
2021/08/01 22:44:18;;;;;;;1.55;0.52;;;13.90;99.90;;;;;;20626606;28;20075;-84
2021/08/01 22:54:19;;;;;;;1.08;0.35;;;13.80;99.90;;;;;;20632804;28;20051;-84
2021/08/01 23:04:41;;;;;;;1.42;0.60;;;13.70;99.90;;;;;;20576401;28;20112;-84
2021/08/01 23:14:48;;;;;;;2.35;0.50;;;13.70;99.90;;;;;;20635041;28;20373;-85
2021/08/01 23:25:16;;;;;;;1.20;0.63;;;13.50;99.90;;;;;;20628419;28;20045;-85
2021/08/01 23:35:18;;;;;;;3.92;0.82;;;13.40;99.90;;;;;;20641917;28;20057;-84
2021/08/01 23:45:21;;;;;;;1.92;0.80;;;13.40;99.90;;;;;;20606676;28;20088;-84
2021/08/01 23:55:29;;;;;;;3.00;1.02;;;13.50;99.90;;;;;;20601524;28;20038;-84
